Time;durP1;ratioP1;P1;durP2;ratioP2;P2;SDS_P1;SDS_P2;PMS_P1;PMS_P2;Temp;Humidity;BMP_temperature;BMP_pressure;BME280_temperature;BME280_humidity;BME280_pressure;Samples;Min_cycle;Max_cycle;Signal;HPM_P1;HPM_P2
2021/05/10 00:00:52;;;;;;;13.38;9.82;;;17.30;99.90;;;;;;4810405;29;20428;-76
2021/05/10 00:03:20;;;;;;;14.75;11.55;;;17.30;99.90;;;;;;4826400;29;20042;-76
2021/05/10 00:05:47;;;;;;;14.40;10.52;;;17.20;99.90;;;;;;4825757;29;20039;-76
2021/05/10 00:08:13;;;;;;;17.75;10.80;;;17.20;99.90;;;;;;4826340;29;20085;-76
2021/05/10 00:10:41;;;;;;;16.58;10.75;;;17.20;99.90;;;;;;4823162;29;20074;-76
2021/05/10 00:13:08;;;;;;;15.57;10.65;;;17.20;99.90;;;;;;4826049;29;20107;-76
2021/05/10 00:15:35;;;;;;;17.48;11.82;;;17.20;99.90;;;;;;4824230;29;20070;-76
2021/05/10 00:18:02;;;;;;;16.70;10.80;;;17.10;99.90;;;;;;4826096;29;20117;-75
2021/05/10 00:20:41;;;;;;;16.35;10.60;;;17.10;99.90;;;;;;4824913;29;20584;-76
2021/05/10 00:23:07;;;;;;;15.50;11.02;;;17.10;99.90;;;;;;4825574;29;20039;-76
2021/05/10 00:25:36;;;;;;;14.10;11.48;;;17.10;99.90;;;;;;4826014;29;20058;-76
2021/05/10 00:28:02;;;;;;;14.48;11.07;;;17.00;99.90;;;;;;4824806;29;20508;-76
2021/05/10 00:30:28;;;;;;;14.00;11.73;;;17.00;99.90;;;;;;4825075;29;20046;-76
2021/05/10 00:32:54;;;;;;;15.27;11.48;;;17.00;99.90;;;;;;4825707;29;20088;-76
2021/05/10 00:35:21;;;;;;;16.70;12.45;;;17.00;99.90;;;;;;4824358;29;20548;-76
2021/05/10 00:37:47;;;;;;;16.20;11.98;;;17.00;99.90;;;;;;4825303;29;20108;-76
2021/05/10 00:40:18;;;;;;;15.60;11.00;;;17.00;99.90;;;;;;4824462;29;20049;-76
2021/05/10 00:42:44;;;;;;;16.15;12.18;;;16.90;99.90;;;;;;4825650;29;20418;-76
2021/05/10 00:45:11;;;;;;;15.77;12.23;;;16.90;99.90;;;;;;4824412;29;20535;-76
2021/05/10 00:47:38;;;;;;;19.35;12.60;;;16.90;99.90;;;;;;4825046;29;20054;-77
2021/05/10 00:50:09;;;;;;;17.30;12.70;;;16.90;99.90;;;;;;4825363;29;20055;-78
2021/05/10 00:52:36;;;;;;;16.33;12.38;;;16.80;99.90;;;;;;4825631;29;20054;-77
2021/05/10 00:55:06;;;;;;;15.15;11.25;;;16.80;99.90;;;;;;4822994;29;20051;-77
2021/05/10 00:57:36;;;;;;;20.60;13.02;;;16.80;99.90;;;;;;4824013;29;20396;-77
2021/05/10 01:00:14;;;;;;;16.58;12.52;;;16.80;99.90;;;;;;4824075;29;20488;-78
2021/05/10 01:02:42;;;;;;;14.60;12.77;;;16.80;99.90;;;;;;4809158;29;20055;-77
2021/05/10 01:05:08;;;;;;;17.75;12.88;;;16.70;99.90;;;;;;4824131;29;20054;-75
2021/05/10 01:07:35;;;;;;;17.00;12.88;;;16.80;99.90;;;;;;4824933;29;20062;-76
2021/05/10 01:10:07;;;;;;;17.77;12.43;;;16.80;99.90;;;;;;4825070;29;20038;-77
2021/05/10 01:12:33;;;;;;;19.95;13.88;;;16.70;99.90;;;;;;4823796;29;20043;-77
2021/05/10 01:14:59;;;;;;;18.30;14.48;;;16.70;99.90;;;;;;4825015;29;20042;-77
2021/05/10 01:17:46;;;;;;;19.15;14.82;;;16.70;99.90;;;;;;4805126;29;20561;-77
2021/05/10 01:20:14;;;;;;;17.70;14.13;;;16.70;99.90;;;;;;4817973;29;20050;-77
2021/05/10 01:22:41;;;;;;;16.95;13.85;;;16.70;99.90;;;;;;4814688;29;20035;-77
2021/05/10 01:25:10;;;;;;;18.20;14.50;;;16.70;99.90;;;;;;4818404;29;20046;-75
2021/05/10 01:27:36;;;;;;;17.65;14.30;;;16.70;99.90;;;;;;4819960;29;20053;-75
2021/05/10 01:30:06;;;;;;;20.35;15.02;;;16.70;99.90;;;;;;4816977;29;20121;-75
2021/05/10 01:32:31;;;;;;;20.42;15.10;;;16.70;99.90;;;;;;4818480;29;20046;-75
2021/05/10 01:34:57;;;;;;;17.52;14.32;;;16.70;99.90;;;;;;4814128;29;20533;-75
2021/05/10 01:37:23;;;;;;;22.58;14.90;;;16.60;99.90;;;;;;4819470;29;20034;-76
2021/05/10 01:39:49;;;;;;;19.13;14.60;;;16.60;99.90;;;;;;4814548;29;20073;-78
2021/05/10 01:42:15;;;;;;;17.52;14.77;;;16.60;99.90;;;;;;4821336;29;20392;-79
2021/05/10 01:44:43;;;;;;;27.50;20.23;;;16.70;99.90;;;;;;4824060;29;20500;-79
2021/05/10 01:47:29;;;;;;;28.23;23.55;;;16.60;99.90;;;;;;4810560;29;20137;-79
2021/05/10 01:49:55;;;;;;;31.17;24.15;;;16.60;99.90;;;;;;4823359;29;20126;-79
2021/05/10 01:52:21;;;;;;;26.33;21.30;;;16.50;99.90;;;;;;4824234;29;20064;-78
2021/05/10 01:54:48;;;;;;;31.15;20.50;;;16.50;99.90;;;;;;4824229;29;20117;-78
2021/05/10 01:57:16;;;;;;;28.45;20.02;;;16.50;99.90;;;;;;4824360;29;20046;-78
2021/05/10 01:59:42;;;;;;;24.52;18.90;;;16.50;99.90;;;;;;4815089;29;20069;-78
2021/05/10 02:02:08;;;;;;;19.77;16.95;;;16.50;99.90;;;;;;4824495;29;20035;-78
2021/05/10 02:05:06;;;;;;;21.17;16.88;;;16.40;99.90;;;;;;4808372;29;20067;-78
2021/05/10 02:07:33;;;;;;;17.38;14.93;;;16.50;99.90;;;;;;4813864;29;20057;-77
2021/05/10 02:09:59;;;;;;;23.35;15.85;;;16.40;99.90;;;;;;4823076;29;20211;-77
2021/05/10 02:12:25;;;;;;;20.50;15.45;;;16.40;99.90;;;;;;4824253;29;20034;-78
2021/05/10 02:14:51;;;;;;;22.70;14.65;;;16.40;99.90;;;;;;4822893;29;20506;-77
2021/05/10 02:17:17;;;;;;;17.35;14.00;;;16.40;99.90;;;;;;4822605;29;20232;-78
2021/05/10 02:19:42;;;;;;;20.58;14.25;;;16.40;99.90;;;;;;4824085;29;20058;-78
2021/05/10 02:22:08;;;;;;;18.48;14.52;;;16.40;99.90;;;;;;4823066;29;20046;-78
2021/05/10 02:24:37;;;;;;;20.33;15.65;;;16.40;99.90;;;;;;4823945;29;20488;-78
2021/05/10 02:27:05;;;;;;;19.52;15.48;;;16.40;99.90;;;;;;4822436;29;20165;-78
2021/05/10 02:29:32;;;;;;;22.15;16.20;;;16.40;99.90;;;;;;4823941;29;20054;-78
2021/05/10 02:31:58;;;;;;;20.75;16.42;;;16.40;99.90;;;;;;4823897;29;20103;-78
2021/05/10 02:34:23;;;;;;;22.80;18.35;;;16.30;99.90;;;;;;4822611;29;20042;-78
2021/05/10 02:36:50;;;;;;;21.77;18.63;;;16.40;99.90;;;;;;4823981;29;20041;-78
2021/05/10 02:39:17;;;;;;;21.52;17.67;;;16.30;99.90;;;;;;4823400;29;20099;-78
2021/05/10 02:41:43;;;;;;;23.58;19.17;;;16.30;99.90;;;;;;4823953;29;20046;-78
2021/05/10 02:44:10;;;;;;;24.15;20.08;;;16.30;99.90;;;;;;4807581;29;20054;-78
2021/05/10 02:46:35;;;;;;;23.75;18.33;;;16.40;99.90;;;;;;4823837;29;20039;-78
2021/05/10 02:49:01;;;;;;;23.10;18.95;;;16.30;99.90;;;;;;4823496;29;20043;-78
2021/05/10 02:51:27;;;;;;;25.38;19.33;;;16.30;99.90;;;;;;4821336;29;20540;-78
2021/05/10 02:53:53;;;;;;;29.23;19.80;;;16.30;99.90;;;;;;4823379;29;20102;-78
2021/05/10 02:56:19;;;;;;;26.42;20.48;;;16.40;99.90;;;;;;4823622;29;20039;-78
2021/05/10 02:58:45;;;;;;;27.45;20.23;;;16.30;99.90;;;;;;4807444;29;20520;-78
2021/05/10 03:01:11;;;;;;;26.98;19.25;;;16.20;99.90;;;;;;4807356;29;20046;-78
2021/05/10 03:03:37;;;;;;;22.55;17.67;;;16.30;99.90;;;;;;4823588;29;20384;-78
2021/05/10 03:06:04;;;;;;;19.20;16.38;;;16.20;99.90;;;;;;4821395;29;20077;-78
2021/05/10 03:08:30;;;;;;;18.23;15.30;;;16.20;99.90;;;;;;4823141;29;20571;-76
2021/05/10 03:10:57;;;;;;;23.08;16.75;;;16.20;99.90;;;;;;4822595;29;20046;-76
2021/05/10 03:13:23;;;;;;;17.80;14.75;;;16.20;99.90;;;;;;4822611;29;20472;-76
2021/05/10 03:15:49;;;;;;;18.75;15.27;;;16.10;99.90;;;;;;4823542;29;20117;-75
2021/05/10 03:18:15;;;;;;;24.42;15.82;;;16.10;99.90;;;;;;4823214;29;20050;-76
2021/05/10 03:20:42;;;;;;;20.77;15.63;;;16.10;99.90;;;;;;4826076;29;20495;-76
2021/05/10 03:23:07;;;;;;;29.48;16.52;;;16.10;99.90;;;;;;4825819;29;20042;-76
2021/05/10 03:25:33;;;;;;;21.25;14.98;;;16.10;99.90;;;;;;4815570;29;20050;-76
2021/05/10 03:28:02;;;;;;;20.85;15.52;;;16.10;99.90;;;;;;4825454;29;20500;-76
2021/05/10 03:30:31;;;;;;;26.50;15.18;;;16.10;99.90;;;;;;4825594;29;20043;-76
2021/05/10 03:33:09;;;;;;;23.70;16.65;;;16.10;99.90;;;;;;4807722;29;20133;-77
2021/05/10 03:35:39;;;;;;;22.92;15.57;;;16.10;99.90;;;;;;4810964;29;20049;-86
2021/05/10 03:38:08;;;;;;;21.85;15.88;;;16.10;99.90;;;;;;4811539;29;20043;-84
2021/05/10 03:40:39;;;;;;;19.45;14.50;;;16.10;99.90;;;;;;4810327;29;20460;-84
2021/05/10 03:43:04;;;;;;;18.80;15.43;;;16.10;99.90;;;;;;4827339;29;20121;-83
2021/05/10 03:45:35;;;;;;;20.52;15.55;;;16.10;99.90;;;;;;4794227;29;20572;-83
2021/05/10 03:48:01;;;;;;;22.65;15.80;;;16.10;99.90;;;;;;4824015;29;20057;-83
2021/05/10 03:50:28;;;;;;;23.38;16.42;;;16.50;99.90;;;;;;4826882;29;20038;-83
2021/05/10 03:52:54;;;;;;;21.95;16.10;;;16.10;99.90;;;;;;4825597;29;20053;-83
2021/05/10 03:55:22;;;;;;;21.02;16.17;;;16.10;99.90;;;;;;4826949;29;20034;-83
2021/05/10 03:57:48;;;;;;;24.73;17.00;;;16.00;99.90;;;;;;4824008;29;20062;-83
2021/05/10 04:00:17;;;;;;;24.40;17.23;;;16.10;99.90;;;;;;4811193;29;20043;-83
2021/05/10 04:02:44;;;;;;;21.42;16.90;;;15.90;99.90;;;;;;4820816;29;20035;-83
2021/05/10 04:05:25;;;;;;;23.38;17.08;;;15.90;99.90;;;;;;4812341;29;20070;-81
2021/05/10 04:16:00;;;;;;;26.90;15.75;;;15.90;99.90;;;;;;4814934;29;20135;-81
2021/05/10 04:18:28;;;;;;;25.65;16.75;;;15.90;99.90;;;;;;4814195;29;20047;-81
2021/05/10 04:20:54;;;;;;;20.05;16.25;;;15.90;99.90;;;;;;4812716;29;20581;-81
2021/05/10 04:23:22;;;;;;;20.75;15.50;;;15.90;99.90;;;;;;4819280;29;20118;-83
2021/05/10 04:25:50;;;;;;;26.33;16.48;;;16.00;99.90;;;;;;4818956;29;20042;-84
2021/05/10 04:28:18;;;;;;;22.27;15.32;;;16.00;99.90;;;;;;4816276;29;20175;-84
2021/05/10 04:30:46;;;;;;;24.88;16.00;;;16.00;99.90;;;;;;4824944;29;20125;-84
2021/05/10 04:33:12;;;;;;;22.20;15.40;;;16.00;99.90;;;;;;4824505;29;21511;-84
2021/05/10 04:35:41;;;;;;;20.30;16.33;;;16.00;99.90;;;;;;4825874;29;20038;-84
2021/05/10 04:38:09;;;;;;;29.20;17.08;;;16.00;99.90;;;;;;4824578;29;20038;-84
2021/05/10 04:40:38;;;;;;;28.98;15.45;;;16.00;99.90;;;;;;4814281;29;20488;-83
2021/05/10 04:43:05;;;;;;;30.23;16.00;;;16.10;99.90;;;;;;4820062;29;20038;-84
2021/05/10 04:45:35;;;;;;;23.13;15.77;;;16.10;99.90;;;;;;4825701;29;20050;-84
2021/05/10 04:48:08;;;;;;;27.60;16.98;;;16.10;99.90;;;;;;4826260;29;20111;-86
2021/05/10 04:50:36;;;;;;;26.10;14.90;;;15.90;99.90;;;;;;4825121;29;20494;-86
2021/05/10 04:53:02;;;;;;;21.33;14.82;;;16.40;99.90;;;;;;4825136;29;20042;-85
2021/05/10 04:55:28;;;;;;;18.20;13.88;;;16.20;99.90;;;;;;4825158;29;20042;-86
2021/05/10 04:57:56;;;;;;;24.02;14.18;;;16.10;99.90;;;;;;4825000;29;20049;-85
2021/05/10 05:00:25;;;;;;;23.88;15.07;;;16.20;99.90;;;;;;4824808;29;20103;-85
2021/05/10 05:02:51;;;;;;;26.02;14.73;;;16.10;99.90;;;;;;4825099;29;20043;-81
2021/05/10 05:05:17;;;;;;;23.70;14.98;;;16.30;99.90;;;;;;4809561;29;20046;-81
2021/05/10 05:07:43;;;;;;;17.83;13.95;;;16.20;99.90;;;;;;4824435;29;20048;-81
2021/05/10 05:10:11;;;;;;;18.88;13.15;;;16.30;99.90;;;;;;4824251;29;20461;-81
2021/05/10 05:12:43;;;;;;;17.00;13.68;;;16.30;99.90;;;;;;4825395;29;20137;-82
2021/05/10 05:15:10;;;;;;;15.38;12.77;;;16.30;99.90;;;;;;4825346;29;20038;-81
2021/05/10 05:17:37;;;;;;;15.50;12.30;;;16.70;99.90;;;;;;4824165;29;20073;-81
2021/05/10 05:20:11;;;;;;;15.77;11.60;;;16.30;99.90;;;;;;4823894;29;20050;-82
2021/05/10 05:22:40;;;;;;;13.10;9.93;;;16.20;99.90;;;;;;4825509;29;20053;-81
2021/05/10 05:25:09;;;;;;;16.80;10.02;;;15.90;99.90;;;;;;4823772;29;20042;-81
2021/05/10 05:27:39;;;;;;;16.63;9.90;;;16.40;99.90;;;;;;4823812;29;20064;-81
2021/05/10 05:30:09;;;;;;;15.13;9.90;;;16.50;99.90;;;;;;4824067;29;20066;-82
2021/05/10 05:32:39;;;;;;;15.05;10.43;;;16.60;99.90;;;;;;4813025;29;20050;-81
2021/05/10 05:35:05;;;;;;;13.50;9.05;;;16.70;99.90;;;;;;4823777;29;20038;-82
2021/05/10 05:37:33;;;;;;;15.93;9.73;;;16.70;99.90;;;;;;4812732;29;20095;-82
2021/05/10 05:40:05;;;;;;;13.68;9.10;;;16.80;99.90;;;;;;4818890;29;20053;-81
2021/05/10 05:42:39;;;;;;;13.90;9.60;;;16.90;99.90;;;;;;4807931;29;20042;-82
2021/05/10 05:45:06;;;;;;;14.00;8.75;;;16.90;99.90;;;;;;4823602;29;20064;-81
2021/05/10 05:47:32;;;;;;;16.42;9.50;;;17.00;99.90;;;;;;4819929;29;20049;-83
2021/05/10 05:50:01;;;;;;;15.25;8.85;;;17.00;99.90;;;;;;4817081;29;20063;-82
2021/05/10 05:52:27;;;;;;;11.98;8.07;;;17.00;99.90;;;;;;4807510;29;20496;-81
2021/05/10 05:54:53;;;;;;;10.13;7.93;;;17.00;99.90;;;;;;4825145;29;20044;-82
2021/05/10 05:57:22;;;;;;;13.90;8.45;;;17.10;99.90;;;;;;4824039;29;20061;-82
2021/05/10 05:59:48;;;;;;;14.90;7.80;;;17.10;99.90;;;;;;4806913;29;20038;-72
2021/05/10 06:02:14;;;;;;;12.23;7.25;;;17.20;99.90;;;;;;4824443;29;20038;-74
2021/05/10 06:04:40;;;;;;;10.95;4.82;;;17.30;99.90;;;;;;4822801;29;20041;-73
2021/05/10 06:07:06;;;;;;;8.57;4.35;;;17.40;99.90;;;;;;4824252;29;20095;-73
2021/05/10 06:09:31;;;;;;;8.82;3.80;;;17.50;99.90;;;;;;4820330;29;20086;-71
2021/05/10 06:11:58;;;;;;;6.88;2.97;;;17.60;99.90;;;;;;4818768;29;20128;-72
2021/05/10 06:14:24;;;;;;;8.88;3.58;;;17.60;99.90;;;;;;4824771;29;20117;-72
2021/05/10 06:16:49;;;;;;;6.88;3.13;;;17.70;99.90;;;;;;4822012;29;20041;-72
2021/05/10 06:19:15;;;;;;;10.10;2.90;;;17.80;99.90;;;;;;4822647;29;20449;-71
2021/05/10 06:21:41;;;;;;;5.05;2.67;;;17.80;99.90;;;;;;4812071;29;20114;-72
2021/05/10 06:24:08;;;;;;;8.13;2.72;;;17.80;99.90;;;;;;4813182;29;20043;-72
2021/05/10 06:26:35;;;;;;;9.40;2.67;;;17.90;99.90;;;;;;4822403;29;20045;-72
2021/05/10 06:29:00;;;;;;;12.50;3.05;;;17.90;99.90;;;;;;4817457;29;20051;-72
2021/05/10 06:31:27;;;;;;;9.90;2.30;;;17.90;99.90;;;;;;4835090;29;20054;-74
2021/05/10 06:33:56;;;;;;;4.63;2.50;;;18.00;99.90;;;;;;4816495;29;20118;-74
2021/05/10 06:36:22;;;;;;;8.38;2.40;;;18.00;99.90;;;;;;4816734;29;20034;-70
2021/05/10 06:38:49;;;;;;;9.65;2.25;;;18.00;99.90;;;;;;4815037;29;20043;-70
2021/05/10 06:41:15;;;;;;;8.43;2.92;;;18.10;99.90;;;;;;4805257;29;20069;-79
2021/05/10 06:43:41;;;;;;;6.85;2.03;;;18.10;99.90;;;;;;4813929;29;20046;-77
2021/05/10 06:46:06;;;;;;;5.50;1.90;;;18.10;99.90;;;;;;4817743;29;20397;-77
2021/05/10 06:48:34;;;;;;;10.20;3.05;;;18.10;99.90;;;;;;4819815;29;20471;-77
2021/05/10 06:51:00;;;;;;;5.38;2.00;;;18.20;99.90;;;;;;4821257;29;20127;-77
2021/05/10 06:53:27;;;;;;;3.90;1.77;;;18.20;99.90;;;;;;4820482;29;20050;-77
2021/05/10 06:55:53;;;;;;;5.18;1.77;;;18.30;99.90;;;;;;4819768;29;20396;-77
2021/05/10 06:58:20;;;;;;;5.95;1.67;;;18.30;99.90;;;;;;4819855;29;20118;-77
2021/05/10 07:00:47;;;;;;;5.55;1.58;;;18.30;99.90;;;;;;4820153;29;20054;-77
2021/05/10 07:03:13;;;;;;;6.68;1.80;;;18.40;99.90;;;;;;4801968;29;20591;-78
2021/05/10 07:05:39;;;;;;;5.32;1.58;;;18.50;99.90;;;;;;4819177;29;20050;-69
2021/05/10 07:08:09;;;;;;;11.02;2.10;;;18.50;99.90;;;;;;4819233;29;20053;-69
2021/05/10 07:10:35;;;;;;;3.58;1.67;;;18.50;99.90;;;;;;4819891;29;20050;-70
2021/05/10 07:13:02;;;;;;;4.47;1.70;;;18.60;99.90;;;;;;4819321;29;20435;-69
2021/05/10 07:15:28;;;;;;;6.45;2.10;;;18.70;99.90;;;;;;4819715;29;20034;-69
2021/05/10 07:18:11;;;;;;;5.88;1.80;;;18.70;99.90;;;;;;4818528;29;20116;-70
2021/05/10 07:20:38;;;;;;;5.57;1.70;;;18.70;99.80;;;;;;4818294;29;20042;-70
2021/05/10 07:23:05;;;;;;;4.88;1.70;;;18.70;99.90;;;;;;4819447;29;20131;-70
2021/05/10 07:25:32;;;;;;;5.00;2.03;;;18.80;99.90;;;;;;4819804;29;20066;-70
2021/05/10 07:27:59;;;;;;;10.10;1.95;;;18.90;99.90;;;;;;4797088;29;635539;-70
2021/05/10 07:30:27;;;;;;;3.47;2.17;;;18.90;99.80;;;;;;4818865;29;20117;-69
2021/05/10 07:32:53;;;;;;;8.25;1.90;;;18.90;99.90;;;;;;4819877;29;20038;-69
2021/05/10 07:35:24;;;;;;;4.18;2.10;;;18.90;99.90;;;;;;4820297;29;20038;-70
2021/05/10 07:37:52;;;;;;;11.45;2.10;;;18.90;99.80;;;;;;4818933;29;20612;-75
2021/05/10 07:40:23;;;;;;;10.38;2.53;;;18.80;99.70;;;;;;4819190;29;20042;-82
2021/05/10 07:42:52;;;;;;;6.03;2.05;;;18.70;99.90;;;;;;4819429;29;20416;-85
2021/05/10 07:45:19;;;;;;;9.07;1.90;;;18.60;99.90;;;;;;4814526;29;20049;-85
2021/05/10 07:47:48;;;;;;;10.07;1.85;;;18.50;99.90;;;;;;4819586;29;20046;-85
2021/05/10 07:50:15;;;;;;;2.80;1.42;;;18.40;99.90;;;;;;4820674;29;20117;-84
2021/05/10 07:52:41;;;;;;;6.10;1.40;;;18.40;99.90;;;;;;4820250;29;20034;-85
2021/05/10 07:55:10;;;;;;;6.15;1.38;;;18.40;99.90;;;;;;4820461;29;20548;-84
2021/05/10 07:57:36;;;;;;;7.00;1.08;;;18.30;99.90;;;;;;4819110;29;20039;-85
2021/05/10 08:00:07;;;;;;;3.85;1.63;;;18.30;99.90;;;;;;4816785;29;20138;-80
2021/05/10 08:02:35;;;;;;;2.40;1.00;;;18.20;99.90;;;;;;4817775;29;20086;-80
2021/05/10 08:05:05;;;;;;;3.05;1.05;;;18.20;99.90;;;;;;4821082;29;20046;-77
2021/05/10 08:07:31;;;;;;;3.88;0.95;;;18.30;99.90;;;;;;4821468;29;20108;-85
2021/05/10 08:10:00;;;;;;;2.20;0.90;;;18.30;99.90;;;;;;4813664;29;20073;-85
2021/05/10 08:12:26;;;;;;;2.55;0.93;;;18.40;99.90;;;;;;4827233;29;20106;-85
2021/05/10 08:15:22;;;;;;;2.67;1.10;;;18.40;99.90;;;;;;4821855;29;20137;-81
2021/05/10 08:17:48;;;;;;;3.63;0.95;;;18.10;99.90;;;;;;4823667;29;20038;-85
2021/05/10 08:20:15;;;;;;;1.83;1.00;;;18.50;99.90;;;;;;4807778;29;20515;-84
2021/05/10 08:22:45;;;;;;;3.22;0.85;;;18.50;99.90;;;;;;4824429;29;20043;-86
2021/05/10 08:25:12;;;;;;;3.85;1.10;;;18.50;99.90;;;;;;4823077;29;20633;-86
2021/05/10 08:27:41;;;;;;;2.60;0.90;;;18.50;99.90;;;;;;4812515;29;20069;-87
2021/05/10 08:30:10;;;;;;;2.38;1.15;;;18.40;99.90;;;;;;4808208;29;20070;-86
2021/05/10 08:32:36;;;;;;;5.50;1.17;;;18.40;99.90;;;;;;4823537;29;20071;-86
2021/05/10 08:35:07;;;;;;;2.03;1.00;;;18.40;99.90;;;;;;4824306;29;20038;-87
2021/05/10 08:37:33;;;;;;;7.03;1.00;;;18.50;99.90;;;;;;4823234;29;20046;-86
2021/05/10 08:39:59;;;;;;;5.65;1.13;;;18.50;99.90;;;;;;4823119;29;20051;-87
2021/05/10 08:42:29;;;;;;;3.90;1.30;;;18.50;99.90;;;;;;4807583;29;20069;-86
2021/05/10 08:44:55;;;;;;;3.67;1.10;;;18.60;99.90;;;;;;4833455;29;20057;-87
2021/05/10 08:47:22;;;;;;;4.72;0.90;;;18.60;99.90;;;;;;4834147;29;20046;-86
2021/05/10 08:49:48;;;;;;;1.90;1.00;;;18.60;99.90;;;;;;4822969;29;20046;-87
2021/05/10 08:52:15;;;;;;;1.13;0.90;;;18.60;99.90;;;;;;4821285;29;20038;-87
2021/05/10 08:54:41;;;;;;;5.43;1.45;;;18.70;99.90;;;;;;4822057;29;20054;-86
2021/05/10 08:57:07;;;;;;;4.10;1.20;;;18.70;99.90;;;;;;4821941;29;20407;-80
2021/05/10 08:59:33;;;;;;;4.15;1.45;;;18.70;99.90;;;;;;4822529;29;20134;-83
2021/05/10 09:02:03;;;;;;;4.18;1.25;;;18.80;99.90;;;;;;4821368;29;20042;-75
2021/05/10 09:04:38;;;;;;;5.20;1.10;;;18.90;99.90;;;;;;4819394;29;20054;-73
2021/05/10 09:07:18;;;;;;;5.00;1.20;;;18.90;99.90;;;;;;4822293;29;20046;-74
2021/05/10 09:10:00;;;;;;;6.07;1.45;;;19.00;99.90;;;;;;4820759;29;20856;-74
2021/05/10 09:12:45;;;;;;;3.92;1.30;;;19.00;99.90;;;;;;4821698;29;20126;-73
2021/05/10 09:15:28;;;;;;;6.10;1.55;;;18.90;99.70;;;;;;4820839;29;20391;-73
2021/05/10 09:18:02;;;;;;;4.57;1.48;;;18.90;99.90;;;;;;4821228;29;20042;-73
2021/05/10 09:20:34;;;;;;;3.13;1.50;;;18.90;99.90;;;;;;4820674;29;20034;-80
2021/05/10 09:23:03;;;;;;;3.53;1.10;;;18.90;99.90;;;;;;4819583;29;20396;-80
2021/05/10 09:25:37;;;;;;;4.38;1.52;;;19.00;99.90;;;;;;4820149;29;21569;-79
2021/05/10 09:28:08;;;;;;;3.40;1.15;;;18.90;99.90;;;;;;4821203;29;20062;-79
2021/05/10 09:30:35;;;;;;;2.55;1.13;;;19.00;99.90;;;;;;4819931;29;20506;-79
2021/05/10 09:33:01;;;;;;;5.82;1.40;;;19.00;99.90;;;;;;4821040;29;20404;-80
2021/05/10 09:35:29;;;;;;;2.60;1.20;;;19.10;99.90;;;;;;4819481;29;20043;-70
2021/05/10 09:37:58;;;;;;;4.82;1.20;;;19.20;99.90;;;;;;4821369;29;20046;-70
2021/05/10 09:40:27;;;;;;;5.85;1.38;;;19.10;99.90;;;;;;4819639;29;20038;-70
2021/05/10 09:42:56;;;;;;;6.25;1.48;;;19.00;99.90;;;;;;4821159;29;20053;-70
2021/05/10 09:45:33;;;;;;;5.78;1.30;;;19.00;99.90;;;;;;4821649;29;20042;-70
2021/05/10 09:48:14;;;;;;;3.38;1.30;;;18.80;99.80;;;;;;4821102;29;20041;-70
2021/05/10 09:50:43;;;;;;;4.68;1.55;;;18.70;99.90;;;;;;4821683;29;20031;-70
2021/05/10 09:53:14;;;;;;;3.85;1.50;;;18.60;99.90;;;;;;4821238;29;20447;-69
2021/05/10 09:55:45;;;;;;;5.03;1.77;;;18.50;99.90;;;;;;4819795;29;20042;-70
2021/05/10 09:58:18;;;;;;;5.22;1.70;;;18.30;99.90;;;;;;4806285;29;20074;-70
2021/05/10 10:00:44;;;;;;;3.00;1.65;;;18.20;99.90;;;;;;4821342;29;20727;-70
2021/05/10 10:03:27;;;;;;;3.65;1.52;;;18.10;99.90;;;;;;4820225;29;20125;-70
2021/05/10 10:05:58;;;;;;;1.80;1.40;;;18.00;99.90;;;;;;4821220;29;20046;-70
2021/05/10 10:08:24;;;;;;;3.70;1.08;;;17.80;99.90;;;;;;4823060;29;20219;-74
2021/05/10 10:10:51;;;;;;;1.55;0.80;;;17.50;99.90;;;;;;4823385;29;20046;-79
2021/05/10 10:13:20;;;;;;;3.20;1.10;;;17.10;99.90;;;;;;4808126;29;20070;-80
2021/05/10 10:15:48;;;;;;;1.33;0.90;;;16.80;99.90;;;;;;4821724;29;20038;-80
2021/05/10 10:18:21;;;;;;;1.13;0.85;;;16.60;99.90;;;;;;4819910;29;20135;-80
2021/05/10 10:20:49;;;;;;;1.85;1.00;;;16.40;99.90;;;;;;4805467;29;20086;-80
2021/05/10 10:23:24;;;;;;;2.10;1.02;;;16.30;99.90;;;;;;4821009;29;20369;-80
2021/05/10 10:25:51;;;;;;;3.60;1.08;;;16.20;99.90;;;;;;4820868;29;20133;-80
2021/05/10 10:28:22;;;;;;;2.95;1.20;;;16.10;99.90;;;;;;4820030;29;20054;-79
2021/05/10 10:30:56;;;;;;;1.85;1.08;;;16.00;99.90;;;;;;4819220;29;20052;-81
2021/05/10 10:33:31;;;;;;;4.43;1.23;;;15.90;99.90;;;;;;4820979;29;20042;-79
2021/05/10 10:35:58;;;;;;;3.55;1.30;;;15.90;99.90;;;;;;4821403;29;20042;-79
2021/05/10 10:38:32;;;;;;;1.42;1.10;;;15.90;99.90;;;;;;4821123;29;20041;-78
2021/05/10 10:41:18;;;;;;;1.50;1.00;;;15.90;99.90;;;;;;4821623;29;20072;-79
2021/05/10 10:43:45;;;;;;;1.55;1.10;;;15.90;99.90;;;;;;4823874;29;20042;-82
2021/05/10 10:46:28;;;;;;;1.83;1.17;;;15.90;99.90;;;;;;4822980;29;20030;-82
2021/05/10 10:48:57;;;;;;;1.65;1.20;;;15.90;99.90;;;;;;4822548;29;20138;-82
2021/05/10 10:51:25;;;;;;;2.30;1.35;;;15.90;99.90;;;;;;4824068;29;20042;-78
2021/05/10 10:53:56;;;;;;;3.42;1.25;;;16.00;99.90;;;;;;4822630;29;20133;-79
2021/05/10 10:56:54;;;;;;;2.38;1.20;;;16.10;99.90;;;;;;4822805;29;20068;-81
2021/05/10 10:59:28;;;;;;;3.10;1.67;;;16.20;99.90;;;;;;4823828;29;20126;-79
2021/05/10 11:01:54;;;;;;;3.13;1.40;;;16.20;99.90;;;;;;4811819;29;20046;-79
2021/05/10 11:04:29;;;;;;;1.85;1.00;;;16.20;99.90;;;;;;4822535;29;20051;-79
2021/05/10 11:06:55;;;;;;;3.65;1.73;;;16.30;99.90;;;;;;4822562;29;20105;-79
2021/05/10 11:09:46;;;;;;;2.92;1.35;;;16.50;99.90;;;;;;4823436;29;20485;-79
2021/05/10 11:12:50;;;;;;;2.42;1.40;;;16.50;99.90;;;;;;4796222;29;20049;-79
2021/05/10 11:15:36;;;;;;;3.55;1.42;;;16.50;99.90;;;;;;4822506;29;20122;-79
2021/05/10 11:18:03;;;;;;;3.30;1.40;;;16.60;99.90;;;;;;4822066;29;20050;-79
2021/05/10 11:20:45;;;;;;;2.70;1.60;;;16.60;99.90;;;;;;4823658;29;20125;-79
2021/05/10 11:23:27;;;;;;;3.40;1.42;;;16.70;99.90;;;;;;4823370;29;20057;-79
2021/05/10 11:25:58;;;;;;;2.35;1.60;;;16.70;99.90;;;;;;4823659;29;20052;-79
2021/05/10 11:28:30;;;;;;;3.58;1.50;;;16.70;99.90;;;;;;4823087;29;20054;-79
2021/05/10 11:30:58;;;;;;;4.65;1.60;;;16.70;99.90;;;;;;4812385;29;20042;-79
2021/05/10 11:33:55;;;;;;;3.70;1.75;;;16.70;99.90;;;;;;4822283;29;20404;-80
2021/05/10 11:36:24;;;;;;;4.53;2.10;;;16.80;99.90;;;;;;4822165;29;20083;-80
2021/05/10 11:39:10;;;;;;;6.38;1.60;;;16.80;99.90;;;;;;4823180;29;20070;-81
2021/05/10 11:41:41;;;;;;;3.00;1.60;;;16.80;99.90;;;;;;4826508;29;20042;-81
2021/05/10 11:44:09;;;;;;;3.70;1.55;;;16.90;99.90;;;;;;4826801;29;20049;-82
2021/05/10 11:46:36;;;;;;;2.53;1.52;;;16.80;99.90;;;;;;4817039;29;20042;-82
2021/05/10 11:49:04;;;;;;;5.43;1.60;;;16.90;99.90;;;;;;4825361;29;20042;-80
2021/05/10 11:51:38;;;;;;;3.85;1.73;;;17.00;99.90;;;;;;4810730;29;20104;-80
2021/05/10 11:54:09;;;;;;;4.53;1.63;;;17.00;99.90;;;;;;4825726;29;20058;-79
2021/05/10 11:56:44;;;;;;;4.30;1.65;;;17.10;99.90;;;;;;4824624;29;20047;-79
2021/05/10 12:02:28;;;;;;;4.70;3.10;;;17.20;99.90;;;;;;4822351;29;20053;-82
2021/05/10 12:05:08;;;;;;;3.78;1.30;;;17.10;99.90;;;;;;4826413;29;20059;-82
2021/05/10 12:07:35;;;;;;;7.32;1.70;;;17.20;99.90;;;;;;4826267;29;20433;-82
2021/05/10 12:10:10;;;;;;;4.75;1.50;;;17.30;99.90;;;;;;4826378;29;20387;-80
2021/05/10 12:12:35;;;;;;;4.10;1.60;;;17.30;99.90;;;;;;4824152;29;20034;-80
2021/05/10 12:15:25;;;;;;;3.67;1.67;;;17.40;99.90;;;;;;4823856;29;20110;-79
2021/05/10 12:17:56;;;;;;;3.40;1.50;;;17.50;99.90;;;;;;4825039;29;20049;-81
2021/05/10 12:20:28;;;;;;;7.40;1.48;;;17.50;99.90;;;;;;4820248;29;20070;-82
2021/05/10 12:23:01;;;;;;;3.40;1.85;;;17.50;99.90;;;;;;4819300;29;20058;-82
2021/05/10 12:25:32;;;;;;;5.95;2.05;;;17.50;99.90;;;;;;4810045;29;20061;-82
2021/05/10 12:28:17;;;;;;;6.88;1.58;;;17.40;99.90;;;;;;4824990;29;20111;-80
2021/05/10 12:30:49;;;;;;;6.00;1.65;;;17.30;99.90;;;;;;4814194;29;20048;-79
2021/05/10 12:33:23;;;;;;;7.73;1.60;;;17.20;99.90;;;;;;4825092;29;20043;-79
2021/05/10 12:36:03;;;;;;;9.45;1.80;;;17.10;99.90;;;;;;4824751;29;20364;-79
2021/05/10 12:38:32;;;;;;;7.07;2.00;;;17.00;99.90;;;;;;4825864;29;20042;-79
2021/05/10 12:41:02;;;;;;;4.85;1.83;;;16.90;99.90;;;;;;4824940;29;20057;-82
2021/05/10 12:43:29;;;;;;;5.43;1.75;;;17.10;99.90;;;;;;4825990;29;20038;-79
2021/05/10 12:46:05;;;;;;;5.65;1.60;;;16.90;99.90;;;;;;4823773;29;20049;-79
2021/05/10 12:48:50;;;;;;;5.45;1.75;;;17.00;99.90;;;;;;4826012;29;20099;-82
2021/05/10 12:51:21;;;;;;;4.53;1.40;;;17.00;99.90;;;;;;4824088;29;20483;-79
2021/05/10 12:53:57;;;;;;;6.28;1.92;;;17.00;99.90;;;;;;4824777;29;20054;-77
2021/05/10 12:56:25;;;;;;;5.50;1.60;;;17.00;99.90;;;;;;4824279;29;20053;-80
2021/05/10 12:58:53;;;;;;;5.43;1.80;;;16.90;99.90;;;;;;4825585;29;20042;-81
2021/05/10 13:01:23;;;;;;;7.50;1.95;;;16.80;99.90;;;;;;4809227;29;20054;-80